• Join FlightAware (Why Join?)
  • Login
  • US Flag 
04:52AM EDT


 

Airport Tracker/Info


-or-


 

Live Flight TrackerFlight Track Log ✈ PDT9312 ✈ 03-May-2012 ✈ KMDT - KLGA

Flight Track Log - Related Links

Times and Time Zones

All times are in EDT time to prevent confusion due to time zone crossing. See the PDT9312 flight status page for this flight to view local times or setup timezone preferences in your user account.

Time Position Orientation Groundspeed Altitude Reporting Facility
EDT Latitude Longitude Course Direction KTS MPH feet Rate Location/Type
12:37PM 40.1998 -76.7279 312° West  Level FlightAware Approximate
12:38PM 40.2152 -76.6476 293° West  Level FlightAware Approximate
12:39PM 40.2304 -76.5673 283° West  Level FlightAware Approximate
12:40PM 40.2764 -76.8381 334° Northwest 152 175 4,700  Level New York Center
12:41PM 40.3108 -76.8600 332° Northwest 152 175 6,100 1,320 Climbing New York Center
12:42PM 40.3469 -76.8850 North 152 175 7,400 1,260 Climbing New York Center
12:43PM 40.3969 -76.8842 North 152 175 8,700 1,260 Climbing New York Center
12:44PM 40.4369 -76.8794 North 151 174 10,000 600 Climbing New York Center
12:45PM 40.4933 -76.8761 360° North 183 211 10,000  Level New York Center
12:46PM 40.5539 -76.8761 56° Northeast 206 237 10,000  Level New York Center
12:47PM 40.5886 -76.8081 86° East 220 253 10,000  Level New York Center
12:48PM 40.5933 -76.7128 79° East 218 251 10,000  Level New York Center
12:49PM 40.6064 -76.6211 81° East 248 285 10,000  Level New York Center
12:50PM 40.6169 -76.5344 80° East 256 295 10,000  Level New York Center
12:51PM 40.6297 -76.4425 83° East 256 295 10,000  Level New York Center
12:52PM 40.6386 -76.3419 95° East 256 295 10,000  Level New York Center
12:53PM 40.6325 -76.2458 94° East 256 295 10,000  Level New York Center
12:54PM 40.6267 -76.1469 94° East 256 295 10,000  Level New York Center
12:55PM 40.6222 -76.0617 94° East 256 295 10,000  Level New York Center
12:56PM 40.6167 -75.9547 92° East 256 295 10,000  Level New York Center
12:57PM 40.6139 -75.8697 94° East 256 295 10,000  Level New York Center
12:58PM 40.6081 -75.7628 93° East 256 295 10,000  Level New York Center
12:59PM 40.6039 -75.6667 93° East 256 295 10,000  Level New York Center
01:00PM 40.5994 -75.5678 94° East 261 300 10,000  Level New York Center
01:01PM 40.5947 -75.4803 95° East 261 300 10,000  Level New York Center
01:02PM 40.5867 -75.3703 95° East 261 300 10,000  Level New York Center
01:03PM 40.5800 -75.2742 93° East 266 306 10,000  Level New York Center
01:04PM 40.5753 -75.1728 93° East 274 315 10,000  Level New York Center
01:05PM 40.5722 -75.0853 98° East 274 315 10,000  Level New York Center
01:06PM 40.5597 -74.9750 111° Southeast 274 315 10,000  Level New York Center
01:07PM 40.5317 -74.8806 111° Southeast 274 315 10,000  Level New York Center
01:08PM 40.5075 -74.7972 114° Southeast 279 321 10,000  Level New York Center
01:09PM 40.4792 -74.7136 109° East 260 299 10,000  Level New York Center
01:10PM 40.4569 -74.6278 165° South 253 291 10,000  Level New York Center
01:11PM 40.4014 -74.6083 174° South 214 246 10,000  Level New York Center
01:12PM 40.3369 -74.5994 111° Southeast 209 241 10,000 -1,020 Level New York Center
01:13PM 40.3144 -74.5244 70° East 200 230 8,000 -1,020 Descending New York Center
01:14PM 40.3333 -74.4547 69° East 190 219 8,000  Level New York Center
01:15PM 40.3564 -74.3769 61° Northeast 201 231 8,000 -540 Level New York Center
01:16PM 40.3858 -74.3078 58° Northeast 212 244 7,000 -540 Descending New York Center
01:17PM 40.4147 -74.2467 58° Northeast 206 237 7,000  Level New York Center
01:18PM 40.4436 -74.1853 58° Northeast 195 224 7,000 -600 Level New York Center
01:19PM 40.4833 -74.1000 14° North 194 223 5,600 -1,020 Descending New York TRACON
01:20PM 40.5333 -74.0833 360° North 179 206 4,700 -840 Descending New York TRACON
01:21PM 40.5833 -74.0833 14° North 183 211 4,000 -360 Descending New York TRACON
01:22PM 40.6333 -74.0667 27° Northeast 191 220 4,000  Level New York TRACON
01:23PM 40.6833 -74.0333 37° Northeast 197 227 4,000  Level New York TRACON
01:24PM 40.7333 -73.9833 37° Northeast 197 227 4,000  Level New York TRACON
01:25PM 40.7667 -73.9500 360° North 195 224 4,000  Level New York TRACON
01:26PM 40.8167 -73.9500 14° North 191 220 4,000  Level New York TRACON
01:27PM 40.8667 -73.9333 27° Northeast 187 215 4,000  Level New York TRACON
01:28PM 40.9167 -73.9000 72° East 195 224 4,000 -120 Level New York TRACON
01:29PM 40.9333 -73.8333 108° East 188 216 3,800 -480 Descending New York TRACON
01:30PM 40.9167 -73.7667 217° Southwest 187 215 3,000 -780 Descending New York TRACON
01:31PM 40.8833 -73.8000 201° Southwest 170 196 2,200 -900 Descending New York TRACON
01:32PM 40.8500 -73.8167 217° Southwest 138 159 1,300 -840 Descending New York TRACON
01:33PM 40.8167 -73.8500 201° Southwest 125 144 700 -600 Descending New York TRACON
01:34PM 40.7833 -73.8667 201° Southwest 118 136 200 -540 Descending New York TRACON